Time;durP1;ratioP1;P1;durP2;ratioP2;P2;SDS_P1;SDS_P2;PMS_P1;PMS_P2;Temp;Humidity;BMP_temperature;BMP_pressure;BME280_temperature;BME280_humidity;BME280_pressure;Samples;Min_cycle;Max_cycle;Signal;HPM_P1;HPM_P2
2022/06/07 00:01:24;;;;;;;6.70;6.10;;;17.70;99.90;;;;;;4952090;28;20265;-81
2022/06/07 00:03:51;;;;;;;9.20;8.40;;;17.60;99.90;;;;;;4968453;28;20296;-80
2022/06/07 00:06:17;;;;;;;8.97;8.23;;;17.40;99.90;;;;;;4952470;28;20234;-80
2022/06/07 00:08:44;;;;;;;8.83;8.23;;;17.40;99.90;;;;;;4968622;28;20206;-81
2022/06/07 00:11:11;;;;;;;6.47;3.57;;;17.30;99.90;;;;;;4952195;28;20977;-80
2022/06/07 00:13:39;;;;;;;3.60;3.30;;;17.30;99.90;;;;;;4949454;28;20207;-80
2022/06/07 00:16:06;;;;;;;8.07;6.40;;;17.20;99.90;;;;;;4951563;28;20194;-80
2022/06/07 00:18:33;;;;;;;5.20;4.07;;;17.20;99.90;;;;;;4953542;28;20226;-81
2022/06/07 00:21:01;;;;;;;4.33;4.00;;;17.20;99.90;;;;;;4969829;28;20679;-81
2022/06/07 00:23:28;;;;;;;4.63;4.33;;;17.00;99.90;;;;;;4955917;28;20202;-80
2022/06/07 00:25:55;;;;;;;8.17;7.57;;;17.10;99.90;;;;;;4971977;28;20240;-81
2022/06/07 00:28:23;;;;;;;3.50;3.17;;;17.00;99.90;;;;;;4955487;28;20718;-81
2022/06/07 00:30:52;;;;;;;8.40;7.70;;;17.00;99.90;;;;;;4971966;28;20201;-81
2022/06/07 00:33:21;;;;;;;3.10;2.90;;;16.90;99.90;;;;;;4955620;28;20253;-81
2022/06/07 00:35:48;;;;;;;3.60;3.30;;;16.80;99.90;;;;;;4972175;28;20194;-81
2022/06/07 00:38:15;;;;;;;8.00;7.10;;;16.80;99.90;;;;;;4955595;28;20229;-81
2022/06/07 00:40:43;;;;;;;5.10;4.70;;;16.80;99.90;;;;;;4971698;28;20559;-80
2022/06/07 00:43:10;;;;;;;5.87;5.37;;;16.80;99.90;;;;;;4972166;28;20294;-80
2022/06/07 00:45:38;;;;;;;6.83;6.40;;;16.70;99.90;;;;;;4947756;28;20209;-80
2022/06/07 00:48:08;;;;;;;7.47;6.83;;;16.70;99.90;;;;;;4956640;28;20283;-80
2022/06/07 00:50:42;;;;;;;3.90;3.47;;;16.70;99.90;;;;;;4956719;28;20197;-81
2022/06/07 00:53:21;;;;;;;3.97;3.77;;;16.60;99.90;;;;;;4971446;28;20633;-80
2022/06/07 00:55:49;;;;;;;4.37;3.97;;;16.50;99.90;;;;;;4974965;28;20244;-80
2022/06/07 00:58:17;;;;;;;7.00;6.57;;;16.50;99.90;;;;;;4973962;28;20230;-80
2022/06/07 01:00:46;;;;;;;3.60;3.30;;;16.40;99.90;;;;;;4967917;28;20207;-81
2022/06/07 01:03:18;;;;;;;3.13;2.93;;;16.30;99.90;;;;;;4952500;28;20302;-81
2022/06/07 01:05:49;;;;;;;8.10;7.40;;;16.30;99.90;;;;;;4971352;28;20210;-81
2022/06/07 01:11:08;;;;;;;4.17;3.87;;;16.20;99.90;;;;;;4951830;28;20204;-81
2022/06/07 01:13:37;;;;;;;8.20;7.70;;;16.20;99.90;;;;;;4967527;28;20199;-81
2022/06/07 01:16:10;;;;;;;6.50;6.00;;;16.10;99.90;;;;;;4951602;28;20200;-80
2022/06/07 01:18:41;;;;;;;4.73;4.43;;;16.10;99.90;;;;;;4954901;28;20202;-80
2022/06/07 01:21:18;;;;;;;9.50;8.83;;;16.10;99.90;;;;;;4968186;28;20214;-81
2022/06/07 01:23:47;;;;;;;4.43;3.73;;;16.00;99.90;;;;;;4954851;28;20675;-81
2022/06/07 01:26:16;;;;;;;3.63;3.33;;;15.90;99.90;;;;;;4954676;28;20235;-80
2022/06/07 01:28:43;;;;;;;4.40;4.10;;;15.90;99.90;;;;;;4971062;28;20666;-81
2022/06/07 01:31:11;;;;;;;8.43;7.93;;;15.80;99.90;;;;;;4970644;28;20400;-80
2022/06/07 01:33:38;;;;;;;6.23;5.83;;;15.80;99.90;;;;;;4966052;28;20232;-80
2022/06/07 01:36:08;;;;;;;7.30;6.70;;;15.80;99.90;;;;;;4954749;28;20268;-81
2022/06/07 01:38:38;;;;;;;3.33;3.03;;;15.80;99.90;;;;;;4970595;28;20242;-81
2022/06/07 01:43:51;;;;;;;5.53;5.17;;;15.80;99.90;;;;;;4948658;28;20196;-81
2022/06/07 01:46:18;;;;;;;4.83;4.47;;;15.70;99.90;;;;;;4953804;28;20273;-80
2022/06/07 01:48:48;;;;;;;8.57;8.07;;;15.70;99.90;;;;;;4954353;28;20202;-81
2022/06/07 01:51:16;;;;;;;6.17;5.77;;;15.70;99.90;;;;;;4970561;28;20300;-80
2022/06/07 01:53:46;;;;;;;4.07;3.77;;;15.70;99.90;;;;;;4970550;28;20578;-80
2022/06/07 01:56:15;;;;;;;8.30;7.77;;;15.70;99.90;;;;;;4970299;28;20597;-80
2022/06/07 01:58:45;;;;;;;6.13;5.70;;;15.70;99.90;;;;;;4973224;28;20202;-81
2022/06/07 02:01:14;;;;;;;7.37;6.83;;;15.80;99.90;;;;;;4954304;28;20197;-81
2022/06/07 02:03:41;;;;;;;6.13;5.63;;;15.80;99.90;;;;;;4954975;28;20212;-80
2022/06/07 02:06:12;;;;;;;8.33;7.83;;;15.80;99.90;;;;;;4953936;28;20220;-80
2022/06/07 02:08:41;;;;;;;8.40;7.90;;;15.70;99.90;;;;;;4966076;28;20276;-81
2022/06/07 02:11:15;;;;;;;12.40;11.60;;;15.80;99.90;;;;;;4969753;28;20292;-81
2022/06/07 02:13:47;;;;;;;9.93;9.33;;;15.80;99.90;;;;;;4969979;28;20209;-80
2022/06/07 02:16:15;;;;;;;3.30;3.00;;;15.80;99.90;;;;;;4966927;28;20209;-80
2022/06/07 02:18:42;;;;;;;4.30;3.10;;;15.80;99.90;;;;;;4953971;28;20201;-81
2022/06/07 02:21:16;;;;;;;3.27;3.07;;;15.80;99.90;;;;;;4953506;28;20213;-80
2022/06/07 02:23:43;;;;;;;3.20;2.90;;;15.80;99.90;;;;;;4969688;28;20660;-81
2022/06/07 02:26:17;;;;;;;3.30;3.10;;;15.70;99.90;;;;;;4966850;28;20483;-81
2022/06/07 02:28:48;;;;;;;3.33;3.00;;;15.70;99.90;;;;;;4948171;28;20196;-81
2022/06/07 02:31:16;;;;;;;4.00;3.60;;;15.70;99.90;;;;;;4953837;28;20250;-81
2022/06/07 02:33:44;;;;;;;3.33;3.13;;;15.70;99.90;;;;;;4948096;29;20208;-81
2022/06/07 02:36:12;;;;;;;3.43;3.13;;;15.70;99.90;;;;;;4946901;29;20206;-81
2022/06/07 02:38:40;;;;;;;3.13;2.93;;;15.60;99.90;;;;;;4969625;28;20667;-81
2022/06/07 02:41:10;;;;;;;2.90;2.60;;;15.60;99.90;;;;;;4969573;28;20205;-81
2022/06/07 02:43:38;;;;;;;9.50;8.90;;;15.60;99.90;;;;;;4964367;28;20198;-80
2022/06/07 02:46:05;;;;;;;10.50;9.80;;;15.60;99.90;;;;;;4953410;28;20196;-80
2022/06/07 02:48:32;;;;;;;9.80;9.20;;;15.60;99.90;;;;;;4953055;28;20620;-81
2022/06/07 02:50:59;;;;;;;10.17;9.40;;;15.60;99.90;;;;;;4950720;28;20258;-79
2022/06/07 02:53:26;;;;;;;9.33;8.70;;;15.60;99.90;;;;;;4958176;28;20201;-79
2022/06/07 02:55:53;;;;;;;3.57;2.97;;;15.50;99.90;;;;;;4955640;28;20194;-79
2022/06/07 02:58:23;;;;;;;4.77;3.63;;;15.40;99.90;;;;;;4955594;28;20227;-78
2022/06/07 03:00:52;;;;;;;4.97;4.30;;;15.50;99.90;;;;;;4956758;28;20210;-78
2022/06/07 03:03:23;;;;;;;4.77;4.13;;;15.40;99.90;;;;;;4955162;28;20254;-78
2022/06/07 03:05:49;;;;;;;10.87;10.07;;;15.40;99.90;;;;;;4970045;28;20243;-78
2022/06/07 03:08:18;;;;;;;5.90;4.50;;;15.40;99.90;;;;;;4954364;28;20236;-77
2022/06/07 03:10:47;;;;;;;5.30;4.33;;;15.40;99.90;;;;;;4972202;28;20702;-78
2022/06/07 03:13:15;;;;;;;5.40;4.30;;;15.40;99.90;;;;;;4970547;28;20214;-78
2022/06/07 03:15:43;;;;;;;5.57;3.90;;;15.40;99.90;;;;;;4970500;28;20630;-77
2022/06/07 03:18:12;;;;;;;8.37;7.77;;;15.30;99.90;;;;;;4971374;28;20220;-78
2022/06/07 03:20:43;;;;;;;11.67;10.97;;;15.30;99.90;;;;;;4964007;28;20197;-78
2022/06/07 03:23:12;;;;;;;11.30;10.37;;;15.30;99.90;;;;;;4954488;28;20206;-78
2022/06/07 03:25:41;;;;;;;10.90;10.20;;;15.30;99.90;;;;;;4969715;28;20367;-78
2022/06/07 03:28:08;;;;;;;10.77;10.10;;;15.30;99.90;;;;;;4969073;28;20277;-79
2022/06/07 03:30:38;;;;;;;11.23;10.53;;;15.30;99.90;;;;;;4946378;28;20204;-80
2022/06/07 03:33:06;;;;;;;3.33;3.13;;;15.30;99.90;;;;;;4954226;28;20203;-81
2022/06/07 03:35:35;;;;;;;3.40;3.20;;;15.30;99.90;;;;;;4954254;28;20194;-81
2022/06/07 03:38:05;;;;;;;3.57;3.30;;;15.20;99.90;;;;;;4954740;28;20212;-81
2022/06/07 03:40:45;;;;;;;3.43;3.20;;;15.20;99.90;;;;;;4971099;28;20211;-79
2022/06/07 03:43:16;;;;;;;3.37;3.17;;;15.20;99.90;;;;;;4971137;28;20701;-81
2022/06/07 03:45:43;;;;;;;3.40;3.20;;;15.20;99.90;;;;;;4970982;28;20697;-81
2022/06/07 03:48:14;;;;;;;4.17;3.40;;;15.20;99.90;;;;;;4954284;28;20416;-80
2022/06/07 03:50:43;;;;;;;4.80;4.50;;;15.10;99.90;;;;;;4969796;28;20288;-82
2022/06/07 03:53:11;;;;;;;3.60;3.30;;;15.10;99.90;;;;;;4969548;28;20290;-81
2022/06/07 03:55:43;;;;;;;3.30;3.10;;;15.10;99.90;;;;;;4950970;28;20695;-81
2022/06/07 03:58:12;;;;;;;3.40;3.20;;;15.10;99.90;;;;;;4973471;28;20665;-81
2022/06/07 04:00:40;;;;;;;3.77;3.47;;;15.10;99.90;;;;;;4973140;28;20757;-81
2022/06/07 04:03:09;;;;;;;3.60;3.40;;;15.10;99.90;;;;;;4956744;28;20203;-82
2022/06/07 04:05:41;;;;;;;3.47;3.17;;;15.20;99.90;;;;;;4957218;28;20218;-81
2022/06/07 04:08:13;;;;;;;3.40;3.10;;;15.20;99.90;;;;;;4957128;28;20727;-80
2022/06/07 04:10:54;;;;;;;3.47;3.27;;;15.20;99.90;;;;;;4961744;28;20195;-81
2022/06/07 04:13:28;;;;;;;3.53;3.27;;;15.30;99.90;;;;;;4972219;28;20203;-81
2022/06/07 04:15:58;;;;;;;3.40;3.20;;;15.30;99.90;;;;;;4973638;28;20672;-81
2022/06/07 04:18:25;;;;;;;3.90;3.40;;;15.30;99.90;;;;;;4971745;28;20235;-81
2022/06/07 04:20:58;;;;;;;3.57;3.27;;;15.20;99.90;;;;;;4953919;28;20205;-81
2022/06/07 04:23:27;;;;;;;3.80;3.50;;;15.30;99.90;;;;;;4956222;28;20289;-81
2022/06/07 04:25:54;;;;;;;3.80;3.50;;;15.30;99.90;;;;;;4975077;28;20339;-81
2022/06/07 04:28:21;;;;;;;4.50;3.70;;;15.30;99.90;;;;;;4957119;29;20314;-80
2022/06/07 04:30:51;;;;;;;4.00;3.33;;;15.30;99.90;;;;;;4973363;28;20256;-81
2022/06/07 04:33:22;;;;;;;3.67;3.40;;;15.30;99.90;;;;;;4973244;28;20219;-80
2022/06/07 04:35:52;;;;;;;3.70;3.40;;;15.30;99.90;;;;;;4973516;28;20200;-81
2022/06/07 04:38:22;;;;;;;3.50;3.30;;;15.30;99.90;;;;;;4956831;28;20220;-81
2022/06/07 04:40:51;;;;;;;3.43;3.13;;;15.30;99.90;;;;;;4972872;28;20280;-81
2022/06/07 04:43:18;;;;;;;3.60;3.30;;;15.30;99.90;;;;;;4957992;28;20245;-82
2022/06/07 04:45:46;;;;;;;3.87;3.57;;;15.30;99.90;;;;;;4974040;28;20208;-83
2022/06/07 04:48:13;;;;;;;3.67;3.37;;;15.30;99.90;;;;;;4956891;28;20274;-81
2022/06/07 04:50:49;;;;;;;3.40;3.10;;;15.40;99.90;;;;;;4954845;28;20586;-81
2022/06/07 04:53:20;;;;;;;3.87;3.57;;;15.50;99.90;;;;;;4971460;28;20207;-82
2022/06/07 04:55:47;;;;;;;3.90;3.60;;;15.60;99.90;;;;;;4975491;28;20207;-82
2022/06/07 04:58:16;;;;;;;3.87;3.57;;;15.70;99.90;;;;;;4973973;28;20223;-82
2022/06/07 05:00:46;;;;;;;3.80;3.50;;;15.80;99.90;;;;;;4960555;28;20200;-83
2022/06/07 05:03:14;;;;;;;6.40;6.00;;;15.90;99.90;;;;;;4972101;28;20200;-82
2022/06/07 05:05:42;;;;;;;6.17;5.67;;;16.00;99.90;;;;;;4973460;28;20678;-82
2022/06/07 05:08:17;;;;;;;7.47;6.97;;;16.10;99.90;;;;;;4956999;28;20209;-80
2022/06/07 05:10:44;;;;;;;6.60;6.20;;;16.20;99.90;;;;;;4973883;28;20220;-82
2022/06/07 05:13:11;;;;;;;3.70;3.37;;;16.20;99.90;;;;;;4973681;28;20251;-82
2022/06/07 05:15:42;;;;;;;5.80;5.40;;;16.20;99.90;;;;;;4973495;28;20208;-82
2022/06/07 05:18:14;;;;;;;3.47;3.13;;;16.30;99.90;;;;;;4961148;28;20217;-81
2022/06/07 05:20:44;;;;;;;6.87;6.43;;;16.30;99.90;;;;;;4974506;28;20205;-82
2022/06/07 05:23:15;;;;;;;3.87;3.07;;;16.40;99.90;;;;;;4974021;28;20235;-83
2022/06/07 05:25:55;;;;;;;5.53;5.17;;;16.50;99.90;;;;;;4973675;28;20219;-82
2022/06/07 05:28:23;;;;;;;9.07;8.57;;;16.60;99.90;;;;;;4957537;28;20224;-81
2022/06/07 05:30:52;;;;;;;3.23;3.00;;;16.70;99.90;;;;;;4956980;28;20723;-83
2022/06/07 05:33:44;;;;;;;7.20;6.50;;;16.80;99.90;;;;;;4951067;29;20205;-82
2022/06/07 05:36:11;;;;;;;3.63;3.43;;;16.80;99.90;;;;;;4969889;28;20205;-82
2022/06/07 05:38:37;;;;;;;2.80;2.70;;;16.90;99.90;;;;;;4960870;28;20208;-82
2022/06/07 05:41:14;;;;;;;8.00;7.50;;;17.10;99.90;;;;;;4977625;28;20582;-83
2022/06/07 05:43:42;;;;;;;4.27;3.10;;;17.20;99.90;;;;;;4959070;28;20199;-82
2022/06/07 05:46:11;;;;;;;7.40;6.90;;;17.40;99.90;;;;;;4957971;28;20660;-82
2022/06/07 05:48:46;;;;;;;5.63;5.30;;;17.50;99.90;;;;;;4957017;28;20222;-83
2022/06/07 05:51:19;;;;;;;7.00;6.60;;;17.40;99.90;;;;;;4973479;28;20249;-82
2022/06/07 05:53:47;;;;;;;3.10;2.90;;;17.40;99.90;;;;;;4974454;28;20213;-81
2022/06/07 05:56:15;;;;;;;6.63;6.23;;;17.30;99.90;;;;;;4958330;28;20297;-83
2022/06/07 05:58:42;;;;;;;7.60;7.10;;;17.30;99.90;;;;;;4972579;28;20206;-83
2022/06/07 06:01:14;;;;;;;6.70;6.30;;;17.20;99.90;;;;;;4958391;28;20225;-82
2022/06/07 06:03:45;;;;;;;9.43;8.73;;;17.30;99.90;;;;;;4958057;28;20292;-82
2022/06/07 06:06:14;;;;;;;7.93;7.43;;;17.20;99.90;;;;;;4974671;28;20202;-83
2022/06/07 06:11:38;;;;;;;9.40;8.70;;;17.30;99.90;;;;;;4956744;28;20194;-82
2022/06/07 06:14:17;;;;;;;7.90;7.40;;;17.50;99.90;;;;;;4973436;28;20300;-83
2022/06/07 06:16:52;;;;;;;8.40;7.90;;;17.70;99.90;;;;;;4962735;28;20253;-82
2022/06/07 06:19:29;;;;;;;3.33;2.93;;;17.80;99.90;;;;;;4953202;28;20291;-82
2022/06/07 06:21:56;;;;;;;3.57;3.33;;;17.90;99.90;;;;;;4956099;28;20204;-82
2022/06/07 06:24:25;;;;;;;7.87;7.37;;;18.20;99.90;;;;;;4956926;28;20205;-82
2022/06/07 06:26:54;;;;;;;8.33;7.63;;;18.20;99.90;;;;;;4972721;28;20290;-83
2022/06/07 06:29:25;;;;;;;7.83;7.27;;;18.30;99.90;;;;;;4976929;28;20527;-82
2022/06/07 06:31:53;;;;;;;3.07;2.87;;;18.50;99.90;;;;;;4973082;28;20203;-82
2022/06/07 06:34:21;;;;;;;4.90;4.60;;;19.40;99.90;;;;;;4971374;28;20207;-83
2022/06/07 06:36:48;;;;;;;11.00;10.30;;;20.50;99.90;;;;;;4973233;28;20227;-82
2022/06/07 06:39:17;;;;;;;6.20;5.80;;;21.30;99.90;;;;;;4963334;28;20659;-84
2022/06/07 06:41:47;;;;;;;4.73;4.43;;;22.40;99.90;;;;;;4957353;28;20584;-83
2022/06/07 06:44:18;;;;;;;4.90;4.50;;;23.50;99.90;;;;;;4956704;28;20205;-83
2022/06/07 06:46:48;;;;;;;4.57;4.27;;;23.30;99.90;;;;;;4972517;28;20214;-82
2022/06/07 06:49:20;;;;;;;6.17;5.77;;;22.70;99.90;;;;;;4971759;28;20313;-82
2022/06/07 06:51:48;;;;;;;5.00;4.70;;;22.10;99.90;;;;;;4955857;28;20645;-83
2022/06/07 06:54:18;;;;;;;5.40;5.00;;;21.50;99.90;;;;;;4956429;28;20495;-82
2022/06/07 06:56:56;;;;;;;8.27;7.77;;;21.00;99.90;;;;;;4972019;28;20222;-82
2022/06/07 06:59:26;;;;;;;6.73;6.30;;;20.60;99.90;;;;;;4955842;28;20205;-81
2022/06/07 07:01:57;;;;;;;5.23;4.90;;;20.40;99.90;;;;;;4971552;28;20653;-82
2022/06/07 07:04:28;;;;;;;4.80;4.40;;;20.30;99.90;;;;;;4971170;28;20229;-83
2022/06/07 07:06:57;;;;;;;6.87;6.37;;;20.30;99.90;;;;;;4971246;28;20218;-82
2022/06/07 07:09:28;;;;;;;8.70;8.07;;;20.40;99.90;;;;;;4954612;28;20226;-82
2022/06/07 07:11:57;;;;;;;8.60;8.10;;;20.50;99.90;;;;;;4956006;28;20222;-82
2022/06/07 07:14:33;;;;;;;8.33;7.73;;;20.50;99.90;;;;;;4957229;28;20210;-81
2022/06/07 07:17:00;;;;;;;3.10;2.90;;;20.60;99.90;;;;;;4970422;28;20590;-81
2022/06/07 07:19:30;;;;;;;2.93;2.67;;;20.70;99.90;;;;;;4953470;29;20194;-81
2022/06/07 07:21:57;;;;;;;4.23;3.20;;;20.80;99.90;;;;;;4965224;28;20285;-81
2022/06/07 07:24:25;;;;;;;2.93;2.70;;;21.30;99.90;;;;;;4970928;28;20203;-81
2022/06/07 07:26:58;;;;;;;7.97;7.47;;;21.70;99.90;;;;;;4955291;28;20309;-84
2022/06/07 07:29:27;;;;;;;2.73;2.53;;;22.00;99.90;;;;;;4968324;28;20214;-81
2022/06/07 07:31:58;;;;;;;3.23;2.70;;;22.10;99.90;;;;;;4963745;28;20198;-81
2022/06/07 07:34:33;;;;;;;2.90;2.70;;;22.00;99.90;;;;;;4957548;28;20202;-80
2022/06/07 07:37:01;;;;;;;8.80;8.30;;;21.70;99.90;;;;;;4956548;28;20590;-79
2022/06/07 07:39:32;;;;;;;6.77;6.27;;;21.60;99.90;;;;;;4957867;28;20245;-81
2022/06/07 07:41:59;;;;;;;2.70;2.50;;;21.60;99.90;;;;;;4974418;28;20218;-80
2022/06/07 07:44:31;;;;;;;3.07;2.83;;;21.50;99.90;;;;;;4958126;28;20230;-80
2022/06/07 07:49:22;;;;;;;6.83;6.33;;;21.30;99.90;;;;;;5136149;27;20494;-82
2022/06/07 07:51:51;;;;;;;6.13;5.73;;;21.80;99.90;;;;;;5118181;28;20228;-82
2022/06/07 07:54:23;;;;;;;7.30;6.80;;;22.40;99.90;;;;;;5125468;28;20576;-79
2022/06/07 07:56:51;;;;;;;5.03;4.63;;;22.40;99.90;;;;;;5124048;28;20240;-79
2022/06/07 07:59:20;;;;;;;3.53;2.60;;;22.50;99.90;;;;;;5132592;28;20196;-80
2022/06/07 08:01:51;;;;;;;4.50;4.20;;;22.50;99.90;;;;;;5133290;28;20283;-79
2022/06/07 08:04:19;;;;;;;3.77;2.43;;;22.40;99.90;;;;;;5130387;28;20593;-78
2022/06/07 08:06:50;;;;;;;6.30;5.97;;;22.70;99.90;;;;;;5131789;28;20216;-79
2022/06/07 08:09:17;;;;;;;2.50;2.40;;;22.80;99.90;;;;;;5132619;27;20219;-79
2022/06/07 08:11:45;;;;;;;5.03;4.67;;;23.10;99.90;;;;;;5132331;27;20192;-79
2022/06/07 08:14:14;;;;;;;5.10;4.60;;;23.10;99.90;;;;;;5130499;28;20245;-80
2022/06/07 08:16:41;;;;;;;3.07;2.40;;;23.40;99.90;;;;;;5130488;28;20231;-81
2022/06/07 08:19:09;;;;;;;3.03;2.83;;;23.90;99.90;;;;;;5137919;27;20733;-80
2022/06/07 08:21:39;;;;;;;6.37;5.83;;;24.10;99.90;;;;;;5132001;28;20288;-78
2022/06/07 08:24:07;;;;;;;6.30;5.80;;;24.50;99.90;;;;;;5125516;28;20250;-79
2022/06/07 08:26:34;;;;;;;7.37;6.90;;;23.90;99.90;;;;;;5121719;28;20220;-81
2022/06/07 08:29:02;;;;;;;7.70;7.20;;;23.80;99.90;;;;;;5128471;28;20628;-81
2022/06/07 08:31:31;;;;;;;5.20;4.90;;;24.70;99.90;;;;;;5129417;28;20250;-81
2022/06/07 08:39:31;;;;;;;4.97;4.67;;;26.40;99.90;;;;;;5128988;28;20269;-81
2022/06/07 08:42:00;;;;;;;2.40;2.20;;;26.10;99.90;;;;;;5125400;27;20196;-82
2022/06/07 08:44:30;;;;;;;3.17;2.87;;;25.80;99.90;;;;;;5129974;28;20207;-82
2022/06/07 08:47:00;;;;;;;2.83;2.40;;;25.40;99.90;;;;;;5129717;28;20277;-79
2022/06/07 08:49:27;;;;;;;3.27;3.07;;;24.90;99.90;;;;;;5130289;28;20709;-80
2022/06/07 08:52:03;;;;;;;4.77;4.37;;;24.70;99.90;;;;;;5129496;28;20235;-80
2022/06/07 08:54:33;;;;;;;6.90;4.00;;;24.50;99.90;;;;;;5131325;28;20212;-80
2022/06/07 08:57:05;;;;;;;3.40;3.10;;;24.60;99.90;;;;;;5129783;28;20224;-81
2022/06/07 08:59:32;;;;;;;3.00;2.90;;;24.60;99.90;;;;;;5124020;27;20186;-80
2022/06/07 09:02:08;;;;;;;4.30;4.00;;;25.00;99.90;;;;;;5117064;28;20242;-81
2022/06/07 09:04:39;;;;;;;5.57;5.17;;;25.40;99.90;;;;;;5116177;28;20246;-81
2022/06/07 09:07:14;;;;;;;2.97;2.77;;;25.60;99.90;;;;;;5116015;28;20309;-81
2022/06/07 09:12:31;;;;;;;3.30;3.10;;;26.40;99.90;;;;;;5116108;28;20224;-80
2022/06/07 09:15:09;;;;;;;2.00;1.90;;;26.70;99.90;;;;;;5117429;28;20193;-81
2022/06/07 09:17:38;;;;;;;3.73;2.30;;;27.10;99.90;;;;;;5117291;28;20227;-82
2022/06/07 09:20:07;;;;;;;6.90;6.43;;;26.70;99.90;;;;;;5113525;28;20253;-81
2022/06/07 09:22:47;;;;;;;2.30;2.10;;;26.00;99.90;;;;;;5117038;28;20249;-80
2022/06/07 09:25:20;;;;;;;7.87;7.47;;;26.20;99.90;;;;;;5119039;27;20210;-79
2022/06/07 09:27:47;;;;;;;7.50;7.00;;;26.70;99.90;;;;;;5116963;28;20209;-81
2022/06/07 09:30:24;;;;;;;7.23;6.83;;;27.40;99.90;;;;;;5119479;27;20201;-80
2022/06/07 09:32:51;;;;;;;5.87;5.57;;;27.60;99.90;;;;;;5115861;28;20193;-81
2022/06/07 09:35:21;;;;;;;2.57;2.37;;;27.80;99.90;;;;;;5117649;28;20276;-80
2022/06/07 09:37:55;;;;;;;2.60;2.40;;;28.10;99.90;;;;;;5117743;28;20295;-79
2022/06/07 09:40:28;;;;;;;6.50;5.97;;;28.30;99.90;;;;;;5116950;28;20261;-80
2022/06/07 09:43:02;;;;;;;8.67;8.17;;;28.60;99.90;;;;;;5116240;28;20193;-79
2022/06/07 09:45:32;;;;;;;7.97;7.50;;;28.90;99.90;;;;;;5115853;28;20209;-81
2022/06/07 09:48:18;;;;;;;9.10;8.30;;;29.20;99.60;;;;;;5116905;28;20224;-82
2022/06/07 09:50:54;;;;;;;6.40;6.00;;;29.10;99.90;;;;;;5109383;28;20201;-82
2022/06/07 09:53:22;;;;;;;6.00;5.70;;;28.90;98.80;;;;;;5117511;28;20189;-82
2022/06/07 09:56:00;;;;;;;8.40;7.80;;;29.20;99.60;;;;;;5110870;28;20200;-81
2022/06/07 09:58:43;;;;;;;6.60;6.17;;;29.30;99.90;;;;;;5115800;28;20212;-81
2022/06/07 10:01:19;;;;;;;6.40;5.90;;;29.50;99.40;;;;;;5116348;28;20572;-82
2022/06/07 10:03:51;;;;;;;6.20;5.80;;;28.80;99.90;;;;;;5113758;28;20193;-81
2022/06/07 10:06:26;;;;;;;6.20;5.80;;;27.90;99.90;;;;;;5116721;28;20197;-81
2022/06/07 10:09:14;;;;;;;4.93;4.63;;;27.20;99.90;;;;;;5116385;28;20205;-81
2022/06/07 10:11:49;;;;;;;3.60;3.33;;;26.60;99.90;;;;;;5107564;28;20198;-80
2022/06/07 10:14:30;;;;;;;3.63;2.93;;;26.20;99.90;;;;;;5116559;28;20193;-82
2022/06/07 10:17:12;;;;;;;4.40;4.10;;;25.90;99.90;;;;;;5116669;28;20216;-81
2022/06/07 10:19:52;;;;;;;5.97;5.67;;;25.70;99.90;;;;;;5113619;28;20238;-80
2022/06/07 10:22:35;;;;;;;2.30;2.20;;;25.30;99.90;;;;;;5115395;28;20250;-80
2022/06/07 10:25:13;;;;;;;1.90;1.80;;;25.20;99.90;;;;;;5116742;28;20193;-79
2022/06/07 10:27:51;;;;;;;3.00;2.83;;;25.10;99.90;;;;;;5110498;28;20536;-79
2022/06/07 10:30:22;;;;;;;1.93;1.83;;;25.10;99.90;;;;;;5116310;28;20688;-79
2022/06/07 10:33:03;;;;;;;2.77;2.63;;;25.10;99.90;;;;;;5115622;28;20202;-79
2022/06/07 10:35:42;;;;;;;5.53;5.23;;;25.00;99.90;;;;;;5115608;28;20631;-79
2022/06/07 10:38:41;;;;;;;6.30;6.00;;;24.80;99.90;;;;;;5110744;28;20572;-79
2022/06/07 10:41:19;;;;;;;7.30;6.83;;;24.60;99.90;;;;;;5112708;28;20197;-80
2022/06/07 10:44:05;;;;;;;1.90;1.80;;;24.60;99.90;;;;;;5116823;28;20193;-80
2022/06/07 10:46:35;;;;;;;2.67;2.47;;;24.70;99.90;;;;;;5115372;28;20220;-78
2022/06/07 10:49:11;;;;;;;6.50;6.10;;;24.60;99.90;;;;;;5116172;28;20209;-79
2022/06/07 10:54:32;;;;;;;1.87;1.77;;;24.90;99.90;;;;;;5114386;28;20715;-80
2022/06/07 10:57:06;;;;;;;1.80;1.70;;;25.60;99.90;;;;;;5114095;28;20705;-79
2022/06/07 10:59:38;;;;;;;2.40;1.60;;;26.00;99.90;;;;;;5114730;28;20237;-79
2022/06/07 11:02:19;;;;;;;2.30;1.80;;;26.00;99.90;;;;;;5117992;28;20201;-79
2022/06/07 11:10:31;;;;;;;1.87;1.73;;;25.90;99.90;;;;;;5116399;28;20197;-81
2022/06/07 11:13:04;;;;;;;1.93;1.70;;;26.00;99.90;;;;;;5117645;28;20211;-82
2022/06/07 11:15:38;;;;;;;1.93;1.70;;;26.00;99.90;;;;;;5115333;28;20216;-81
2022/06/07 11:18:09;;;;;;;4.00;3.80;;;26.20;99.90;;;;;;5112804;28;20221;-81
2022/06/07 11:20:47;;;;;;;1.63;1.60;;;26.40;99.90;;;;;;5113595;28;20197;-82
2022/06/07 11:23:18;;;;;;;2.30;2.10;;;26.80;99.90;;;;;;5113624;28;20258;-82
2022/06/07 11:26:00;;;;;;;4.07;3.87;;;26.70;99.90;;;;;;5114216;28;20188;-79
2022/06/07 11:28:31;;;;;;;6.17;5.77;;;26.40;99.90;;;;;;5113775;28;20624;-81
2022/06/07 11:31:02;;;;;;;6.83;6.43;;;26.40;99.90;;;;;;5113790;28;20541;-81
2022/06/07 11:34:02;;;;;;;3.53;3.33;;;26.10;99.90;;;;;;5112331;28;20201;-82
2022/06/07 11:36:38;;;;;;;3.67;1.70;;;25.90;99.90;;;;;;5112959;28;20200;-81
2022/06/07 11:39:52;;;;;;;1.40;1.40;;;26.10;99.90;;;;;;5113374;28;20711;-80
2022/06/07 11:42:28;;;;;;;2.97;2.87;;;26.10;99.90;;;;;;5061944;28;20589;-80
2022/06/07 11:45:18;;;;;;;1.60;1.50;;;25.80;99.90;;;;;;5110566;28;20201;-80
2022/06/07 11:48:16;;;;;;;1.83;1.70;;;25.30;99.90;;;;;;5110024;28;20231;-82
2022/06/07 11:50:54;;;;;;;2.07;1.93;;;24.90;99.90;;;;;;5081966;28;20246;-81
2022/06/07 11:53:25;;;;;;;6.30;6.00;;;24.90;99.90;;;;;;5112693;28;20883;-79
2022/06/07 11:56:21;;;;;;;1.77;1.70;;;25.10;99.90;;;;;;5113865;28;20254;-80
2022/06/07 11:58:56;;;;;;;1.73;1.67;;;25.20;99.90;;;;;;5105607;28;20196;-81
2022/06/07 12:01:37;;;;;;;1.80;1.70;;;25.40;99.90;;;;;;5113458;28;20207;-79
2022/06/07 12:04:33;;;;;;;1.70;1.60;;;25.60;99.90;;;;;;5114035;28;20302;-79
2022/06/07 12:07:06;;;;;;;2.00;1.70;;;25.70;99.90;;;;;;5108356;28;20228;-82
2022/06/07 12:09:34;;;;;;;1.67;1.60;;;25.70;99.90;;;;;;5113001;28;20212;-82
2022/06/07 12:12:19;;;;;;;4.80;4.50;;;25.70;99.90;;;;;;5114562;28;20276;-81
2022/06/07 12:14:49;;;;;;;1.80;1.70;;;25.70;99.90;;;;;;5105266;28;20269;-81
2022/06/07 12:17:25;;;;;;;1.83;1.60;;;25.70;99.90;;;;;;5113115;28;20685;-79
2022/06/07 12:19:52;;;;;;;1.80;1.70;;;25.70;99.90;;;;;;5115388;28;20633;-82
2022/06/07 12:22:21;;;;;;;1.70;1.60;;;25.90;99.90;;;;;;5114208;28;20197;-80
2022/06/07 12:24:53;;;;;;;2.57;2.43;;;26.00;99.90;;;;;;5113302;28;20201;-82
2022/06/07 12:27:30;;;;;;;1.80;1.70;;;26.30;99.90;;;;;;5113155;28;20221;-81
2022/06/07 12:30:01;;;;;;;3.90;2.23;;;26.50;99.90;;;;;;5116279;28;20220;-80
2022/06/07 12:32:35;;;;;;;1.47;1.43;;;26.50;99.90;;;;;;5111997;28;20231;-81
2022/06/07 12:35:16;;;;;;;1.70;1.70;;;26.40;99.90;;;;;;5114583;28;20202;-80
2022/06/07 12:37:47;;;;;;;1.50;1.50;;;26.50;99.90;;;;;;5110055;28;20292;-81
2022/06/07 12:40:34;;;;;;;2.67;1.73;;;26.30;99.90;;;;;;5117918;28;20245;-79
2022/06/07 12:43:02;;;;;;;1.70;1.60;;;26.10;99.90;;;;;;5116514;28;20201;-80
2022/06/07 12:45:33;;;;;;;1.70;1.60;;;26.00;99.90;;;;;;5115886;28;20193;-81
2022/06/07 12:48:09;;;;;;;1.70;1.60;;;26.20;99.90;;;;;;5116192;28;20252;-80
2022/06/07 12:50:39;;;;;;;1.50;1.50;;;26.40;99.70;;;;;;5116741;28;20205;-81
2022/06/07 12:53:06;;;;;;;1.70;1.60;;;26.30;99.90;;;;;;5116775;28;20189;-81
2022/06/07 12:55:36;;;;;;;1.60;1.60;;;26.20;99.90;;;;;;5116670;28;20196;-80
2022/06/07 12:58:07;;;;;;;1.70;1.60;;;26.00;99.90;;;;;;5115625;28;20245;-79
2022/06/07 13:00:42;;;;;;;1.80;1.70;;;26.00;99.90;;;;;;5116998;28;20250;-80
2022/06/07 13:03:24;;;;;;;2.53;1.80;;;26.00;99.90;;;;;;5117168;28;20196;-81
2022/06/07 13:05:59;;;;;;;3.23;1.60;;;26.10;99.90;;;;;;5111714;27;20251;-81
2022/06/07 13:08:34;;;;;;;3.23;1.67;;;26.10;99.90;;;;;;5115471;28;20361;-81
2022/06/07 13:11:05;;;;;;;1.70;1.67;;;26.00;99.90;;;;;;5115495;28;20296;-81
2022/06/07 13:13:35;;;;;;;1.63;1.60;;;26.00;99.90;;;;;;5118512;28;20204;-80
2022/06/07 13:16:14;;;;;;;1.80;1.70;;;26.10;99.90;;;;;;5115685;28;20197;-80
2022/06/07 13:18:44;;;;;;;2.10;2.00;;;26.20;99.90;;;;;;5108014;28;20292;-81
2022/06/07 13:21:17;;;;;;;2.40;1.50;;;26.00;99.90;;;;;;5115962;28;20197;-81
2022/06/07 13:23:46;;;;;;;1.60;1.60;;;26.00;99.90;;;;;;5115070;28;20201;-80
2022/06/07 13:26:21;;;;;;;2.10;2.00;;;25.60;99.50;;;;;;5114922;28;20208;-81
2022/06/07 13:29:00;;;;;;;3.30;3.10;;;25.20;99.90;;;;;;5114771;28;20189;-81
2022/06/07 13:31:30;;;;;;;4.60;4.30;;;25.00;99.90;;;;;;5114216;27;20205;-82
2022/06/07 13:34:05;;;;;;;2.40;2.30;;;24.80;99.90;;;;;;5120496;27;20201;-80
2022/06/07 13:36:36;;;;;;;4.00;3.80;;;24.70;99.90;;;;;;5114467;28;20607;-81